Time;durP1;ratioP1;P1;durP2;ratioP2;P2;SDS_P1;SDS_P2;PMS_P1;PMS_P2;Temp;Humidity;BMP_temperature;BMP_pressure;BME280_temperature;BME280_humidity;BME280_pressure;Samples;Min_cycle;Max_cycle;Signal;HPM_P1;HPM_P2
2021/04/21 04:13:47;;;;;;;8.13;7.03;;;;;;;8.21;100.00;99742.02;1752629;80;21339;-75
2021/04/21 04:16:15;;;;;;;7.17;5.62;;;;;;;8.24;100.00;99743.76;1753511;80;21929;-73
2021/04/21 04:18:43;;;;;;;7.10;5.70;;;;;;;8.28;100.00;99749.40;1719519;82;21183;-74
2021/04/21 04:21:12;;;;;;;8.47;6.07;;;;;;;8.30;100.00;99759.13;1781447;79;21211;-74
2021/04/21 04:23:41;;;;;;;6.80;5.77;;;;;;;8.34;100.00;99759.08;1783001;79;21506;-75
2021/04/21 04:26:09;;;;;;;7.43;6.20;;;;;;;8.36;100.00;99769.27;1736770;81;21411;-73
2021/04/21 04:28:38;;;;;;;7.43;6.47;;;;;;;8.36;100.00;99770.07;1715987;82;21761;-73
2021/04/21 04:31:07;;;;;;;6.83;5.83;;;;;;;8.38;100.00;99773.34;1673492;81;21314;-73
2021/04/21 04:33:36;;;;;;;7.00;5.87;;;;;;;8.39;100.00;99781.44;1779196;78;21799;-75
2021/04/21 04:36:05;;;;;;;6.87;5.30;;;;;;;8.42;100.00;99788.08;1777259;78;21423;-74
2021/04/21 04:38:33;;;;;;;6.50;5.00;;;;;;;8.44;100.00;99792.08;1792336;78;21299;-73
2021/04/21 04:41:03;;;;;;;8.10;6.60;;;;;;;8.48;100.00;99795.92;1734007;82;21334;-74
2021/04/21 04:43:31;;;;;;;6.37;5.13;;;;;;;8.51;100.00;99799.97;1776648;79;21142;-75
2021/04/21 04:46:01;;;;;;;7.77;6.20;;;;;;;8.55;100.00;99809.50;1703149;82;21313;-73
2021/04/21 04:48:42;;;;;;;6.63;4.83;;;;;;;8.57;100.00;99810.94;1730117;81;21811;-72
2021/04/21 04:51:11;;;;;;;5.97;4.67;;;;;;;8.61;100.00;99810.09;1749790;81;21430;-74
2021/04/21 04:53:40;;;;;;;8.07;6.00;;;;;;;8.62;100.00;99819.48;1760894;80;22163;-75
2021/04/21 04:56:08;;;;;;;9.30;6.00;;;;;;;8.63;100.00;99826.29;1723543;82;21270;-73
2021/04/21 04:58:36;;;;;;;6.77;5.23;;;;;;;8.63;100.00;99828.89;1730656;81;21427;-73
2021/04/21 05:01:09;;;;;;;6.33;5.20;;;;;;;8.62;100.00;99828.58;1738452;81;21372;-75
2021/04/21 05:03:44;;;;;;;5.93;4.57;;;;;;;8.59;100.00;99828.94;1741689;80;21423;-73
2021/04/21 05:06:32;;;;;;;5.90;4.67;;;;;;;8.60;100.00;99835.27;1800451;76;22818;-62
2021/04/21 05:09:04;;;;;;;6.87;5.00;;;;;;;8.57;100.00;99838.72;1789554;78;21034;-61
2021/04/21 05:11:32;;;;;;;8.30;5.78;;;;;;;8.57;100.00;99846.02;1780724;79;22553;-61
2021/04/21 05:14:02;;;;;;;5.50;4.43;;;;;;;8.60;100.00;99850.02;1726604;82;21634;-61
2021/04/21 05:17:00;;;;;;;6.57;5.23;;;;;;;8.60;100.00;99857.81;1700214;82;21246;-63
2021/04/21 05:19:46;;;;;;;6.97;4.80;;;;;;;8.57;100.00;99857.70;1694856;82;21193;-63
2021/04/21 05:22:41;;;;;;;6.40;4.47;;;;;;;8.53;100.00;99853.36;1818153;78;22755;-64
2021/04/21 05:25:50;;;;;;;6.20;4.50;;;;;;;8.47;100.00;99859.26;1792364;77;21532;-68
2021/04/21 05:28:50;;;;;;;6.05;4.50;;;;;;;8.46;100.00;99865.45;1789204;77;21033;-67
2021/04/21 05:31:47;;;;;;;7.07;4.90;;;;;;;8.44;100.00;99866.10;1791513;79;21394;-66
2021/04/21 05:34:46;;;;;;;6.63;4.90;;;;;;;8.46;100.00;99872.44;1734683;82;21798;-69
2021/04/21 05:38:12;;;;;;;5.43;4.03;;;;;;;8.47;100.00;99872.74;1670322;82;21451;-67
2021/04/21 05:40:57;;;;;;;5.57;4.20;;;;;;;8.47;100.00;99878.74;1683674;84;21185;-66
2021/04/21 05:44:21;;;;;;;5.87;4.53;;;;;;;8.44;100.00;99884.28;1680613;83;21446;-65
2021/04/21 05:47:30;;;;;;;5.93;4.70;;;;;;;8.45;100.00;99888.52;1731237;81;21384;-66
2021/04/21 05:50:27;;;;;;;6.17;4.50;;;;;;;8.46;100.00;99904.91;1760184;80;21330;-67
2021/04/21 05:53:29;;;;;;;4.80;3.60;;;;;;;8.47;100.00;99904.72;1715697;82;21322;-67
2021/04/21 05:56:42;;;;;;;6.17;4.60;;;;;;;8.47;100.00;99908.61;1726621;82;21465;-65
2021/04/21 05:59:53;;;;;;;7.27;5.07;;;;;;;8.50;100.00;99912.16;1732865;82;22081;-65
2021/04/21 06:02:22;;;;;;;8.40;5.13;;;;;;;8.55;100.00;99915.52;1731007;82;21866;-65
2021/04/21 06:05:11;;;;;;;9.77;5.47;;;;;;;8.60;100.00;99925.37;1716747;82;21769;-63
2021/04/21 06:07:45;;;;;;;6.67;4.87;;;;;;;8.64;100.00;99933.95;1736697;81;22597;-64
2021/04/21 06:10:26;;;;;;;8.07;5.60;;;;;;;8.68;100.00;99935.20;1736229;81;21445;-62
2021/04/21 06:12:58;;;;;;;8.83;5.73;;;;;;;8.73;100.00;99932.87;1735413;81;21244;-68
2021/04/21 06:15:30;;;;;;;9.13;5.20;;;;;;;8.84;100.00;99942.02;1734463;81;21536;-66
2021/04/21 06:17:59;;;;;;;;;;;;;;;9.04;100.00;99942.77;1747795;81;21198;-66
2021/04/21 06:20:41;;;;;;;8.07;4.50;;;;;;;9.40;100.00;99946.73;1736454;81;20280;-66
2021/04/21 06:23:23;;;;;;;8.60;4.87;;;;;;;9.85;100.00;99952.11;1758817;78;21370;-66
2021/04/21 06:26:00;;;;;;;7.90;5.20;;;;;;;10.29;100.00;99955.52;1775510;78;21480;-65
2021/04/21 06:28:29;;;;;;;9.70;5.03;;;;;;;10.63;100.00;99950.86;1770079;79;21645;-65
2021/04/21 06:31:12;;;;;;;7.80;4.83;;;;;;;10.90;100.00;99946.09;1742126;81;22938;-65
2021/04/21 06:33:44;;;;;;;7.03;4.77;;;;;;;11.30;100.00;99957.23;1735304;81;21850;-68
2021/04/21 06:36:14;;;;;;;7.20;5.17;;;;;;;11.73;100.00;99959.56;1739139;81;22184;-68
2021/04/21 06:38:42;;;;;;;7.77;5.80;;;;;;;12.07;100.00;99956.03;1714035;81;21288;-67
2021/04/21 06:41:12;;;;;;;9.00;7.00;;;;;;;12.33;100.00;99959.16;1783743;79;20927;-67
2021/04/21 06:43:42;;;;;;;8.73;7.77;;;;;;;12.43;100.00;99958.77;1740836;79;21559;-68
2021/04/21 06:46:30;;;;;;;9.00;7.33;;;;;;;12.50;100.00;99962.16;1778450;78;21228;-66
2021/04/21 06:49:01;;;;;;;11.27;8.43;;;;;;;12.59;100.00;99951.80;1631401;85;21658;-65
2021/04/21 06:51:32;;;;;;;10.23;9.13;;;;;;;12.79;100.00;99951.77;1665760;84;21248;-66
2021/04/21 06:54:01;;;;;;;11.40;9.93;;;;;;;12.89;100.00;99954.26;1665703;84;22426;-67
2021/04/21 06:56:32;;;;;;;10.93;9.83;;;;;;;12.89;100.00;99950.84;1665158;84;21028;-65
2021/04/21 06:59:01;;;;;;;13.17;11.83;;;;;;;12.78;100.00;99953.58;1676909;84;21150;-66
2021/04/21 07:01:31;;;;;;;13.60;12.20;;;;;;;12.71;100.00;99950.17;1670294;83;21630;-65
2021/04/21 07:04:14;;;;;;;14.93;13.40;;;;;;;12.70;100.00;99957.72;1694951;83;21188;-66
2021/04/21 07:06:44;;;;;;;16.10;14.40;;;;;;;12.90;100.00;99956.36;1686052;83;21231;-65
2021/04/21 07:09:18;;;;;;;14.47;13.07;;;;;;;13.34;100.00;99955.64;1693298;83;21472;-65
2021/04/21 07:11:48;;;;;;;14.30;12.90;;;;;;;13.76;100.00;99954.72;1687467;83;21116;-65
2021/04/21 07:14:19;;;;;;;15.10;13.68;;;;;;;14.19;100.00;99956.63;1670250;84;26778;-65
2021/04/21 07:16:52;;;;;;;13.67;12.27;;;;;;;14.59;100.00;99956.33;1701725;83;21241;-65
2021/04/21 07:19:22;;;;;;;12.83;11.53;;;;;;;14.90;100.00;99945.42;1689778;82;21231;-64
2021/04/21 07:21:51;;;;;;;14.00;12.60;;;;;;;15.14;100.00;99956.33;1683632;83;21078;-64
2021/04/21 07:24:29;;;;;;;12.50;11.30;;;;;;;15.38;100.00;99957.77;1689443;83;21227;-64
2021/04/21 07:26:58;;;;;;;12.77;11.47;;;;;;;15.67;100.00;99963.57;1703853;83;21156;-63
2021/04/21 07:29:26;;;;;;;12.43;11.23;;;;;;;15.86;100.00;99963.52;1668897;84;22201;-63
2021/04/21 07:31:55;;;;;;;12.90;11.60;;;;;;;15.81;100.00;99962.87;1699001;83;21307;-64
2021/04/21 07:34:30;;;;;;;11.90;10.70;;;;;;;15.76;100.00;99970.13;1692210;83;21140;-63
2021/04/21 07:36:58;;;;;;;10.83;9.83;;;;;;;15.74;100.00;99966.91;1691350;83;21265;-63
2021/04/21 07:39:40;;;;;;;11.10;10.00;;;;;;;15.86;100.00;99968.25;1699800;83;21494;-63
2021/04/21 07:42:18;;;;;;;11.73;10.63;;;;;;;15.94;100.00;99977.64;1693855;83;21122;-64
2021/04/21 07:44:51;;;;;;;11.53;10.43;;;;;;;15.76;100.00;99982.47;1691200;83;21130;-63
2021/04/21 07:47:20;;;;;;;;;;;;;;;15.69;100.00;99984.39;1697337;82;22202;-64
2021/04/21 07:49:58;;;;;;;10.63;9.53;;;;;;;15.93;100.00;99986.56;1695763;81;20558;-63
2021/04/21 07:52:27;;;;;;;11.83;10.63;;;;;;;16.25;100.00;99991.85;1700503;83;21227;-62
2021/04/21 07:55:10;;;;;;;11.03;10.00;;;;;;;16.58;100.00;99994.95;1699442;83;21301;-63
2021/04/21 07:57:59;;;;;;;11.87;10.77;;;;;;;17.07;100.00;99983.67;1822463;78;26262;-63
2021/04/21 08:00:30;;;;;;;12.10;10.80;;;;;;;17.35;100.00;99995.58;1784807;78;21101;-62
2021/04/21 08:03:00;;;;;;;11.63;10.53;;;;;;;17.54;100.00;100001.97;1803816;78;21200;-64
2021/04/21 08:05:28;;;;;;;12.17;10.97;;;;;;;17.43;100.00;100000.48;1795998;79;21643;-64
2021/04/21 08:08:01;;;;;;;10.90;9.80;;;;;;;17.20;100.00;100003.98;1805167;79;21484;-62
2021/04/21 08:13:13;;;;;;;9.27;8.37;;;;;;;17.24;100.00;100001.16;1825634;76;27450;-63
2021/04/21 08:15:43;;;;;;;8.57;7.73;;;;;;;17.83;100.00;100000.17;1780341;79;21619;-63
2021/04/21 08:18:14;;;;;;;9.47;8.57;;;;;;;18.26;100.00;100008.00;1796631;77;21358;-64
2021/04/21 08:20:52;;;;;;;8.93;8.03;;;;;;;18.51;100.00;100003.13;1804532;77;22508;-64
2021/04/21 08:23:22;;;;;;;8.83;7.20;;;;;;;18.67;100.00;100010.22;1798263;77;21554;-63
2021/04/21 08:25:52;;;;;;;8.13;7.23;;;;;;;18.57;100.00;100007.98;1797083;77;21042;-62
2021/04/21 08:28:21;;;;;;;9.23;8.33;;;;;;;18.43;100.00;100015.41;1798256;78;21642;-64
2021/04/21 08:30:54;;;;;;;8.70;7.60;;;;;;;18.50;100.00;100021.34;1793038;77;21356;-63
2021/04/21 08:33:22;;;;;;;10.30;7.60;;;;;;;18.54;100.00;100020.34;1803796;79;21093;-65
2021/04/21 08:35:51;;;;;;;8.87;7.97;;;;;;;18.48;100.00;100014.16;1742462;81;21510;-64
2021/04/21 08:38:19;;;;;;;7.13;6.10;;;;;;;18.56;100.00;100005.86;1758356;79;22270;-64
2021/04/21 08:40:48;;;;;;;7.83;6.70;;;;;;;18.87;100.00;100016.89;1762872;79;21248;-64
2021/04/21 08:43:17;;;;;;;8.40;5.73;;;;;;;19.27;97.89;100017.92;1754729;80;21239;-64
2021/04/21 08:45:45;;;;;;;6.63;5.90;;;;;;;19.60;96.26;100018.30;1753685;79;21173;-66
2021/04/21 08:48:14;;;;;;;7.13;6.43;;;;;;;19.80;86.81;100012.45;1754162;78;21149;-63
2021/04/21 08:50:43;;;;;;;6.50;5.80;;;;;;;19.84;81.38;100017.52;1752424;79;21240;-65
2021/04/21 08:53:11;;;;;;;7.10;6.40;;;;;;;19.83;86.45;100019.09;1766867;80;21200;-65
2021/04/21 08:55:42;;;;;;;7.67;6.87;;;;;;;20.06;89.49;100025.92;1733540;82;21619;-65
2021/04/21 08:58:11;;;;;;;6.97;6.27;;;;;;;20.34;77.69;100032.77;1740127;81;20991;-63
2021/04/21 09:00:41;;;;;;;6.27;5.60;;;;;;;20.43;71.05;100030.47;1738061;81;21081;-65
2021/04/21 09:03:10;;;;;;;8.98;5.95;;;;;;;20.52;63.52;100028.44;1744104;81;21139;-64
2021/04/21 09:05:39;;;;;;;6.87;6.00;;;;;;;20.62;62.97;100027.72;1752627;80;21494;-71
2021/04/21 09:10:28;;;;;;;10.83;9.03;;;;;;;20.93;63.81;100026.58;1786961;77;27808;-73
2021/04/21 09:12:56;;;;;;;9.17;8.27;;;;;;;20.82;57.84;100025.19;1754354;79;21399;-72
2021/04/21 09:15:25;;;;;;;7.63;6.83;;;;;;;20.28;63.58;100037.23;1758696;79;21377;-71
2021/04/21 09:24:07;;;;;;;8.00;7.20;;;;;;;18.28;77.44;100054.23;1688392;82;21968;-72
2021/04/21 09:26:36;;;;;;;8.58;7.20;;;;;;;17.98;85.09;100061.09;1696977;81;21159;-67
2021/04/21 09:29:05;;;;;;;9.37;7.63;;;;;;;17.72;88.41;100060.58;1686151;83;21447;-74
2021/04/21 09:31:34;;;;;;;7.67;6.87;;;;;;;17.48;95.25;100063.02;1702446;83;21523;-71
2021/04/21 09:34:14;;;;;;;7.23;6.30;;;;;;;17.38;95.15;100064.12;1696863;82;21030;-71
2021/04/21 09:36:47;;;;;;;7.67;6.87;;;;;;;17.33;93.95;100067.97;1702416;83;21176;-77
2021/04/21 09:39:23;;;;;;;6.80;5.80;;;;;;;17.42;94.48;100070.52;1709906;83;21553;-73
2021/04/21 09:42:00;;;;;;;8.10;5.80;;;;;;;17.71;97.25;100066.10;1701044;83;22205;-72
2021/04/21 09:44:29;;;;;;;5.67;4.37;;;;;;;18.10;88.31;100067.11;1710792;82;21152;-73
2021/04/21 09:47:02;;;;;;;7.03;6.05;;;;;;;18.52;80.06;100068.07;1721837;81;21223;-72
2021/04/21 09:49:35;;;;;;;6.53;4.93;;;;;;;18.98;72.70;100063.53;1702719;83;20978;-72
2021/04/21 09:52:24;;;;;;;5.43;4.40;;;;;;;19.03;66.74;100073.37;1698965;83;21215;-75
2021/04/21 09:54:52;;;;;;;6.77;5.30;;;;;;;18.58;65.83;100071.08;1695233;83;21376;-70
2021/04/21 09:57:27;;;;;;;5.63;4.53;;;;;;;18.04;72.08;100076.51;1693335;83;21145;-71
2021/04/21 10:00:03;;;;;;;4.47;3.73;;;;;;;18.01;78.14;100081.73;1695488;83;21164;-71
2021/04/21 10:02:37;;;;;;;4.90;3.63;;;;;;;18.33;73.18;100075.94;1707359;83;21149;-71
2021/04/21 10:05:29;;;;;;;4.80;3.67;;;;;;;18.42;62.79;100079.80;1712474;83;21145;-70
2021/04/21 10:08:12;;;;;;;4.83;3.97;;;;;;;18.12;65.85;100075.59;1722494;82;21369;-75
2021/04/21 10:10:46;;;;;;;5.63;4.70;;;;;;;17.81;71.64;100082.67;1663746;85;21481;-80
2021/04/21 10:13:19;;;;;;;6.07;4.50;;;;;;;17.92;78.16;100088.42;1671171;85;21048;-74
2021/04/21 10:15:49;;;;;;;4.77;3.70;;;;;;;18.39;80.81;100087.67;1661472;85;21141;-78
2021/04/21 10:18:17;;;;;;;6.27;3.90;;;;;;;18.97;68.65;100084.36;1690140;84;21919;-69
2021/04/21 10:20:46;;;;;;;4.70;3.67;;;;;;;19.32;59.40;100080.61;1758114;79;22209;-73
2021/04/21 10:23:16;;;;;;;6.33;4.20;;;;;;;19.57;60.93;100080.13;1688419;84;21229;-70
2021/04/21 10:25:46;;;;;;;6.17;4.13;;;;;;;19.86;55.39;100078.91;1745424;81;21172;-71
2021/04/21 10:28:15;;;;;;;5.03;4.17;;;;;;;19.98;50.58;100078.77;1746974;79;21113;-70
2021/04/21 10:30:43;;;;;;;5.83;4.73;;;;;;;19.98;50.70;100087.23;1691215;81;21021;-69
2021/04/21 10:33:13;;;;;;;5.37;4.77;;;;;;;20.03;54.78;100090.72;1743168;81;21456;-70
2021/04/21 10:35:41;;;;;;;6.83;5.10;;;;;;;20.04;49.45;100079.60;1727073;81;21109;-69
2021/04/21 10:38:16;;;;;;;4.63;3.93;;;;;;;19.89;49.81;100071.02;1684516;84;21501;-73
2021/04/21 10:40:44;;;;;;;5.37;4.87;;;;;;;19.79;53.45;100082.27;1736900;79;21562;-73
2021/04/21 10:43:13;;;;;;;5.47;4.43;;;;;;;19.76;53.10;100090.70;1745623;81;21654;-77
2021/04/21 10:45:48;;;;;;;6.63;4.93;;;;;;;19.67;54.56;100085.05;1739452;81;21726;-71
2021/04/21 10:48:44;;;;;;;5.03;4.20;;;;;;;19.68;61.84;100093.25;1744861;81;21160;-74
2021/04/21 10:51:40;;;;;;;7.07;5.70;;;;;;;19.94;61.63;100089.58;1742071;81;22106;-73
2021/04/21 10:54:09;;;;;;;7.60;5.53;;;;;;;20.27;50.37;100085.94;1732195;81;22001;-72
2021/04/21 10:56:37;;;;;;;6.40;5.47;;;;;;;20.17;45.90;100094.56;1747172;81;21124;-75
2021/04/21 10:59:06;;;;;;;5.73;4.90;;;;;;;19.85;46.86;100096.34;1751038;81;21398;-72
2021/04/21 11:01:38;;;;;;;6.40;5.30;;;;;;;19.71;49.33;100093.30;1720259;81;21552;-72
2021/04/21 11:04:08;;;;;;;6.03;5.27;;;;;;;19.95;52.73;100092.48;1739021;81;21116;-76
2021/04/21 11:06:45;;;;;;;6.33;4.70;;;;;;;20.43;52.19;100104.08;1747309;81;21516;-71
2021/04/21 11:09:15;;;;;;;6.53;5.73;;;;;;;20.62;47.94;100104.52;1759754;80;21160;-77
2021/04/21 11:11:48;;;;;;;6.20;5.27;;;;;;;20.55;47.29;100099.96;1756702;80;21359;-73
2021/04/21 11:14:51;;;;;;;6.83;4.93;;;;;;;20.49;44.49;100099.11;1753994;79;21089;-71
2021/04/21 11:17:19;;;;;;;6.93;5.10;;;;;;;20.31;46.17;100099.47;1753389;80;21783;-73
2021/04/21 11:19:48;;;;;;;7.73;5.73;;;;;;;19.92;46.37;100099.59;1749459;80;21145;-71
2021/04/21 11:22:20;;;;;;;5.90;4.90;;;;;;;19.65;46.97;100101.67;1747684;80;20966;-73
2021/04/21 11:25:22;;;;;;;6.20;4.83;;;;;;;19.55;47.68;100098.90;1747892;80;21199;-76
2021/04/21 11:27:51;;;;;;;5.50;4.60;;;;;;;19.72;52.31;100095.41;1757768;80;21466;-74
2021/04/21 11:30:42;;;;;;;5.70;5.00;;;;;;;19.96;48.30;100100.69;1693868;84;21030;-78
2021/04/21 11:33:31;;;;;;;;;;;;;;;20.05;50.04;100098.42;1720463;81;21221;-70
2021/04/21 11:36:33;;;;;;;5.30;4.20;;;;;;;20.17;50.91;100101.19;1703229;83;20564;-70
2021/04/21 11:39:02;;;;;;;5.10;3.97;;;;;;;20.20;48.23;100093.80;1706826;83;21677;-77
2021/04/21 11:41:42;;;;;;;7.90;4.50;;;;;;;20.06;47.52;100094.19;1699995;83;21026;-71
2021/04/21 11:44:29;;;;;;;5.47;4.30;;;;;;;19.84;48.56;100100.04;1702514;83;21174;-72
2021/04/21 11:47:02;;;;;;;6.30;4.10;;;;;;;19.49;47.61;100095.91;1698552;84;21130;-73
2021/04/21 11:50:03;;;;;;;4.80;4.07;;;;;;;19.33;49.11;100088.84;1699022;83;21161;-73
2021/04/21 11:52:58;;;;;;;5.03;4.08;;;;;;;19.13;48.35;100099.91;1697049;83;22769;-73
2021/04/21 11:55:42;;;;;;;5.20;4.40;;;;;;;18.85;50.81;100099.52;1702198;83;21178;-73
2021/04/21 11:58:31;;;;;;;4.90;3.90;;;;;;;18.86;51.68;100087.38;1691636;83;21148;-77
2021/04/21 12:01:08;;;;;;;5.77;4.40;;;;;;;19.01;48.72;100098.69;1697779;84;21192;-74
2021/04/21 12:03:41;;;;;;;4.43;4.03;;;;;;;19.12;50.20;100097.79;1699563;83;21193;-73
2021/04/21 12:06:16;;;;;;;4.73;3.83;;;;;;;19.15;49.51;100090.70;1699630;83;21371;-74
2021/04/21 12:08:49;;;;;;;6.07;4.07;;;;;;;19.28;47.34;100090.89;1704557;83;21467;-72
2021/04/21 12:11:29;;;;;;;4.83;3.73;;;;;;;19.31;47.94;100084.30;1685722;83;21047;-76
2021/04/21 12:13:57;;;;;;;4.30;3.50;;;;;;;19.24;47.10;100079.19;1746331;81;21603;-75
2021/04/21 12:16:28;;;;;;;4.47;3.83;;;;;;;19.28;48.09;100087.42;1753250;81;21411;-72
2021/04/21 12:18:58;;;;;;;4.17;3.60;;;;;;;19.35;47.77;100089.38;1746300;81;21259;-74
2021/04/21 12:21:36;;;;;;;5.07;3.97;;;;;;;19.24;48.82;100090.28;1708509;83;21153;-72
2021/04/21 12:24:08;;;;;;;4.83;3.53;;;;;;;19.06;51.29;100092.17;1758469;81;21607;-73
2021/04/21 12:26:41;;;;;;;5.80;4.27;;;;;;;18.86;49.58;100092.66;1739737;81;21001;-74
2021/04/21 12:29:17;;;;;;;4.60;3.60;;;;;;;18.54;49.35;100087.13;1750678;79;21105;-75
2021/04/21 12:31:46;;;;;;;7.23;4.80;;;;;;;18.38;52.26;100089.23;1750567;79;21534;-75
2021/04/21 12:34:24;;;;;;;3.90;3.27;;;;;;;18.37;53.31;100094.21;1765297;79;21671;-72
2021/04/21 12:36:53;;;;;;;5.40;3.67;;;;;;;18.23;49.92;100098.48;1737939;79;21073;-74
2021/04/21 12:39:22;;;;;;;7.00;5.00;;;;;;;17.93;51.07;100100.05;1746302;79;21196;-74
2021/04/21 12:41:58;;;;;;;6.00;5.07;;;;;;;17.58;53.83;100107.20;1730925;80;21549;-71
2021/04/21 12:44:29;;;;;;;5.00;4.10;;;;;;;17.25;57.10;100106.81;1745038;81;21192;-76
2021/04/21 12:47:07;;;;;;;5.37;4.28;;;;;;;17.07;61.37;100108.77;1748462;81;21535;-71
2021/04/21 12:49:43;;;;;;;6.00;4.67;;;;;;;16.96;68.68;100111.67;1748739;81;21141;-71
2021/04/21 12:52:17;;;;;;;6.80;4.77;;;;;;;17.07;70.78;100116.66;1749801;81;21070;-73
2021/04/21 12:54:50;;;;;;;7.03;4.73;;;;;;;17.29;72.53;100115.58;1681855;84;21921;-73
2021/04/21 12:57:23;;;;;;;5.37;4.43;;;;;;;17.51;66.85;100109.99;1742439;81;21180;-73
2021/04/21 12:59:55;;;;;;;5.60;3.97;;;;;;;17.50;62.61;100115.78;1739509;81;21010;-76
2021/04/21 13:02:49;;;;;;;6.33;5.60;;;;;;;17.38;66.08;100116.30;1683621;84;21540;-73
2021/04/21 13:05:20;;;;;;;7.67;6.17;;;;;;;17.23;71.81;100122.03;1685893;84;21384;-71
2021/04/21 13:07:48;;;;;;;8.30;6.42;;;;;;;17.16;83.00;100116.10;1689590;84;21181;-70
2021/04/21 13:10:18;;;;;;;9.63;5.97;;;;;;;17.23;80.89;100120.71;1749184;80;21688;-70
2021/04/21 13:12:47;;;;;;;6.57;5.40;;;;;;;17.25;79.47;100119.19;1748903;81;21191;-71
2021/04/21 13:15:23;;;;;;;8.03;5.97;;;;;;;17.27;80.80;100121.05;1744850;81;22201;-74
2021/04/21 13:20:46;;;;;;;8.87;6.43;;;;;;;17.39;74.75;100120.55;1814486;78;25420;-71
2021/04/21 13:23:21;;;;;;;8.63;6.60;;;;;;;17.41;79.00;100128.22;1791613;79;22407;-70
2021/04/21 13:25:58;;;;;;;8.63;5.90;;;;;;;17.48;79.50;100124.94;1779403;77;21258;-72
2021/04/21 13:28:41;;;;;;;7.90;5.90;;;;;;;17.46;71.05;100129.63;1778600;77;21583;-73
2021/04/21 13:31:14;;;;;;;7.97;6.83;;;;;;;17.28;71.74;100134.53;1782598;77;21105;-72
2021/04/21 13:33:45;;;;;;;10.93;6.53;;;;;;;17.00;75.22;100134.68;1784233;77;21014;-70
2021/04/21 13:36:15;;;;;;;;;;;;;;;16.71;82.01;100137.66;1788803;77;20971;-71
2021/04/21 13:38:44;;;;;;;8.87;7.00;;;;;;;16.61;85.98;100135.29;1780032;79;21189;-71
2021/04/21 13:41:14;;;;;;;8.30;6.67;;;;;;;16.68;89.33;100142.58;1792634;77;20946;-73
2021/04/21 13:43:43;;;;;;;10.57;8.07;;;;;;;16.71;85.19;100142.13;1784575;79;20934;-69
2021/04/21 13:46:11;;;;;;;9.63;8.63;;;;;;;16.58;87.99;100149.69;1780912;79;21681;-69
2021/04/21 13:48:40;;;;;;;7.70;6.27;;;;;;;16.39;87.48;100143.69;1787763;77;21554;-70
2021/04/21 13:51:10;;;;;;;9.07;6.93;;;;;;;16.16;86.11;100152.80;1782443;77;21406;-70
2021/04/21 13:53:39;;;;;;;9.60;7.27;;;;;;;15.93;89.55;100145.61;1784173;79;21148;-72
2021/04/21 13:56:09;;;;;;;6.60;5.70;;;;;;;15.77;90.52;100150.44;1779909;79;21010;-69
2021/04/21 13:58:37;;;;;;;7.73;6.37;;;;;;;15.68;90.52;100149.13;1783502;77;21467;-72
2021/04/21 14:01:06;;;;;;;8.03;6.83;;;;;;;15.65;95.04;100148.73;1785175;77;21547;-70
2021/04/21 14:03:34;;;;;;;6.73;5.87;;;;;;;15.74;99.41;100146.92;1791546;79;21149;-71
2021/04/21 14:06:03;;;;;;;9.30;7.03;;;;;;;15.94;100.00;100139.31;1803172;79;20927;-74
2021/04/21 14:08:31;;;;;;;7.40;5.70;;;;;;;16.15;100.00;100139.38;1706812;82;21191;-70
2021/04/21 14:11:00;;;;;;;7.40;6.33;;;;;;;16.36;100.00;100138.86;1728268;82;21175;-71
2021/04/21 14:13:28;;;;;;;9.03;6.57;;;;;;;16.52;95.76;100135.62;1729708;80;21175;-75
2021/04/21 14:15:57;;;;;;;8.83;6.63;;;;;;;16.56;88.94;100135.97;1738620;81;21354;-74
2021/04/21 14:18:25;;;;;;;9.17;6.53;;;;;;;16.49;88.91;100145.79;1732355;82;21215;-71
2021/04/21 14:20:54;;;;;;;8.30;6.40;;;;;;;16.41;90.60;100142.16;1725510;82;21065;-74
2021/04/21 14:23:22;;;;;;;8.47;6.50;;;;;;;16.33;88.32;100140.66;1724649;82;21232;-73
2021/04/21 14:25:50;;;;;;;7.23;6.13;;;;;;;16.24;90.92;100140.14;1729282;82;21573;-72
2021/04/21 14:28:19;;;;;;;6.67;5.30;;;;;;;16.16;90.56;100145.71;1720680;82;22122;-76
2021/04/21 14:30:47;;;;;;;8.57;6.10;;;;;;;16.08;85.72;100145.22;1749914;81;22377;-71
2021/04/21 14:33:15;;;;;;;7.47;5.70;;;;;;;15.98;88.60;100145.22;1724465;82;21025;-72
2021/04/21 14:35:43;;;;;;;6.87;4.87;;;;;;;15.90;86.65;100153.41;1727992;82;21154;-72
2021/04/21 14:38:11;;;;;;;6.63;5.10;;;;;;;15.76;81.32;100153.30;1732036;82;21167;-70
2021/04/21 14:40:39;;;;;;;7.00;5.17;;;;;;;15.63;83.76;100147.62;1723996;82;21261;-74
2021/04/21 14:43:08;;;;;;;6.87;5.63;;;;;;;15.57;85.35;100144.58;1735470;82;21250;-76
2021/04/21 14:45:36;;;;;;;5.77;4.70;;;;;;;15.51;84.02;100145.44;1740540;81;21573;-71
2021/04/21 14:48:06;;;;;;;5.33;4.50;;;;;;;15.48;87.08;100157.69;1737900;82;21171;-73
2021/04/21 14:50:35;;;;;;;6.90;4.53;;;;;;;15.45;86.61;100151.03;1733440;82;21143;-74
2021/04/21 14:53:04;;;;;;;8.23;6.00;;;;;;;15.42;83.26;100141.47;1734822;82;21247;-73
2021/04/21 14:55:33;;;;;;;8.03;4.83;;;;;;;15.33;84.21;100150.95;1754663;79;21085;-72
2021/04/21 14:58:02;;;;;;;7.17;4.83;;;;;;;15.27;86.29;100155.77;1729879;81;21105;-74
2021/04/21 15:00:30;;;;;;;6.63;5.03;;;;;;;15.25;87.99;100149.11;1722716;82;21229;-72
2021/04/21 15:03:00;;;;;;;6.27;4.30;;;;;;;15.21;86.87;100153.20;1738747;82;21388;-70
2021/04/21 15:05:29;;;;;;;7.53;4.00;;;;;;;15.13;86.43;100162.66;1732565;80;21635;-72
2021/04/21 15:07:57;;;;;;;5.07;4.30;;;;;;;15.00;83.07;100159.61;1725293;82;21124;-71
2021/04/21 15:10:26;;;;;;;5.30;4.20;;;;;;;14.88;83.42;100162.64;1743875;81;21333;-72
2021/04/21 15:12:54;;;;;;;7.27;4.90;;;;;;;14.72;85.30;100164.77;1729397;82;21159;-71
2021/04/21 15:15:23;;;;;;;5.87;4.73;;;;;;;14.57;88.24;100166.89;1725041;82;21631;-70
2021/04/21 15:17:53;;;;;;;6.83;5.30;;;;;;;14.44;92.78;100168.26;1733949;82;21263;-70
2021/04/21 15:20:21;;;;;;;5.40;4.80;;;;;;;14.31;96.91;100171.73;1730486;81;21124;-72
2021/04/21 15:22:50;;;;;;;7.97;5.57;;;;;;;14.21;99.51;100174.82;1766287;78;21078;-76
2021/04/21 15:25:23;;;;;;;8.53;5.10;;;;;;;14.11;100.00;100177.88;1760498;80;21151;-72
2021/04/21 15:27:52;;;;;;;6.60;4.73;;;;;;;14.04;100.00;100174.98;1721857;81;20948;-70
2021/04/21 15:30:24;;;;;;;6.00;4.43;;;;;;;13.98;100.00;100170.55;1682416;81;21211;-69
2021/04/21 15:32:53;;;;;;;4.85;3.65;;;;;;;13.93;100.00;100187.41;1729342;81;21100;-74
2021/04/21 15:35:21;;;;;;;5.63;4.13;;;;;;;13.90;100.00;100186.52;1744883;81;21092;-71
2021/04/21 15:37:51;;;;;;;6.70;4.47;;;;;;;13.87;100.00;100187.75;1743123;81;20962;-70
2021/04/21 15:40:22;;;;;;;11.60;6.57;;;;;;;13.85;100.00;100190.55;1746322;79;21080;-70
2021/04/21 15:42:52;;;;;;;7.97;5.62;;;;;;;13.85;100.00;100197.62;1752978;81;21376;-76
2021/04/21 15:45:23;;;;;;;6.07;4.93;;;;;;;13.81;100.00;100197.22;1746115;79;21661;-70
2021/04/21 15:47:51;;;;;;;7.17;6.05;;;;;;;13.75;100.00;100204.61;1742656;81;21006;-72
2021/04/21 15:50:20;;;;;;;6.93;4.80;;;;;;;13.68;100.00;100205.63;1737565;80;21136;-70
2021/04/21 15:52:48;;;;;;;8.13;4.50;;;;;;;13.59;100.00;100205.02;1737045;81;21149;-75
2021/04/21 15:55:19;;;;;;;10.70;6.10;;;;;;;13.52;100.00;100210.77;1743696;80;22612;-70
2021/04/21 15:57:50;;;;;;;11.65;5.62;;;;;;;13.43;100.00;100212.80;1738702;80;21191;-71
2021/04/21 16:00:21;;;;;;;7.45;5.80;;;;;;;13.34;100.00;100218.75;1731402;81;21220;-70
2021/04/21 16:02:57;;;;;;;8.38;5.45;;;;;;;13.28;100.00;100222.67;1733243;81;21037;-69
2021/04/21 16:05:27;;;;;;;9.23;6.47;;;;;;;13.23;100.00;100227.20;1743456;81;21179;-71
2021/04/21 16:07:55;;;;;;;7.12;5.67;;;;;;;13.16;100.00;100236.83;1740873;79;21285;-72
2021/04/21 16:10:26;;;;;;;8.17;5.23;;;;;;;13.09;100.00;100234.20;1740066;81;21144;-74
2021/04/21 16:12:55;;;;;;;6.53;4.83;;;;;;;13.00;100.00;100231.99;1735440;80;22357;-70
2021/04/21 16:15:24;;;;;;;6.77;4.90;;;;;;;12.90;100.00;100238.40;1748097;80;21703;-71
2021/04/21 16:17:52;;;;;;;6.47;4.40;;;;;;;12.69;100.00;100252.12;1746505;79;21828;-69
2021/04/21 16:20:21;;;;;;;8.90;5.47;;;;;;;12.69;100.00;100252.12;1730080;79;21558;-74
2021/04/21 16:22:49;;;;;;;5.80;4.17;;;;;;;12.55;100.00;100252.09;1716912;80;21927;-70